Time;durP1;ratioP1;P1;durP2;ratioP2;P2;SDS_P1;SDS_P2;PMS_P1;PMS_P2;Temp;Humidity;BMP_temperature;BMP_pressure;BME280_temperature;BME280_humidity;BME280_pressure;Samples;Min_cycle;Max_cycle;Signal;HPM_P1;HPM_P2
2024/01/30 00:01:51;;;;;;;46.53;30.95;;;4.50;99.90;;;;;;5057959;28;20045;-71
2024/01/30 00:04:17;;;;;;;49.42;32.92;;;4.50;99.90;;;;;;5034833;28;20102;-71
2024/01/30 00:06:46;;;;;;;41.70;30.83;;;4.50;99.90;;;;;;5042096;28;20052;-71
2024/01/30 00:09:11;;;;;;;43.65;29.42;;;4.50;99.90;;;;;;5040441;28;20282;-71
2024/01/30 00:11:38;;;;;;;40.35;29.25;;;4.90;99.90;;;;;;5031274;28;20146;-72
2024/01/30 00:14:04;;;;;;;42.28;28.85;;;4.50;99.90;;;;;;5060405;28;20316;-71
2024/01/30 00:16:30;;;;;;;41.30;28.95;;;4.60;99.90;;;;;;5043569;28;20142;-71
2024/01/30 00:18:56;;;;;;;43.28;29.45;;;4.40;99.90;;;;;;5060326;28;20125;-71
2024/01/30 00:21:23;;;;;;;41.13;28.73;;;4.40;99.90;;;;;;5056152;28;20330;-71
2024/01/30 00:23:49;;;;;;;39.28;27.98;;;4.30;99.90;;;;;;5042887;28;20044;-70
2024/01/30 00:26:15;;;;;;;42.03;28.35;;;4.40;99.90;;;;;;5059884;28;20044;-70
2024/01/30 00:28:44;;;;;;;41.25;29.58;;;4.30;99.90;;;;;;5059756;28;20051;-70
2024/01/30 00:31:13;;;;;;;40.03;29.45;;;4.30;99.90;;;;;;5044086;28;20080;-70
2024/01/30 00:33:39;;;;;;;49.00;31.05;;;4.30;99.90;;;;;;5059338;28;20123;-71
2024/01/30 00:36:12;;;;;;;50.65;30.92;;;4.20;99.90;;;;;;5060043;28;20049;-71
2024/01/30 00:38:37;;;;;;;50.95;32.67;;;4.20;99.90;;;;;;5041217;28;20197;-70
2024/01/30 00:41:03;;;;;;;53.83;33.13;;;4.40;99.90;;;;;;5039863;28;20041;-70
2024/01/30 00:43:29;;;;;;;56.03;34.15;;;4.30;99.90;;;;;;5059717;28;20045;-70
2024/01/30 00:45:55;;;;;;;45.40;31.73;;;4.50;99.90;;;;;;5042624;28;20129;-70
2024/01/30 00:48:21;;;;;;;46.75;31.13;;;4.40;99.90;;;;;;5059878;28;20040;-70
2024/01/30 00:50:47;;;;;;;46.67;32.72;;;4.50;99.90;;;;;;5059546;28;20052;-70
2024/01/30 00:53:13;;;;;;;46.10;30.65;;;4.50;99.90;;;;;;5042473;28;20090;-70
2024/01/30 00:55:39;;;;;;;48.08;31.27;;;4.50;99.90;;;;;;5058371;28;20083;-70
2024/01/30 00:58:05;;;;;;;56.10;34.00;;;4.50;99.90;;;;;;5059778;28;20131;-70
2024/01/30 01:00:31;;;;;;;45.40;31.63;;;4.50;99.90;;;;;;5059291;28;20105;-70
2024/01/30 01:02:58;;;;;;;41.90;29.63;;;4.50;99.90;;;;;;5043087;28;20041;-70
2024/01/30 01:05:24;;;;;;;43.63;29.92;;;4.40;99.90;;;;;;5059171;28;20049;-70
2024/01/30 01:07:50;;;;;;;45.67;31.65;;;4.40;99.90;;;;;;5054896;28;20048;-70
2024/01/30 01:10:19;;;;;;;45.50;30.30;;;4.40;99.90;;;;;;5059856;28;20784;-70
2024/01/30 01:12:45;;;;;;;45.00;30.92;;;4.40;99.90;;;;;;5059409;28;20594;-70
2024/01/30 01:15:11;;;;;;;38.45;28.45;;;4.30;99.90;;;;;;5052407;28;20102;-71
2024/01/30 01:17:40;;;;;;;45.47;30.27;;;4.60;99.90;;;;;;5059077;28;20566;-72
2024/01/30 01:20:07;;;;;;;41.35;29.38;;;4.30;99.90;;;;;;5042914;28;20673;-71
2024/01/30 01:22:33;;;;;;;43.28;30.58;;;4.30;99.90;;;;;;5058467;28;20519;-71
2024/01/30 01:25:02;;;;;;;47.58;30.55;;;4.30;99.90;;;;;;5042600;28;20250;-71
2024/01/30 01:27:28;;;;;;;47.28;31.80;;;4.30;99.90;;;;;;5033982;28;20048;-71
2024/01/30 01:29:54;;;;;;;46.17;29.75;;;4.30;99.90;;;;;;5058530;28;20059;-72
2024/01/30 01:32:20;;;;;;;44.38;30.60;;;4.20;99.90;;;;;;5042409;28;20130;-71
2024/01/30 01:34:46;;;;;;;51.55;32.05;;;4.30;99.90;;;;;;5057923;28;20068;-71
2024/01/30 01:37:11;;;;;;;48.15;29.70;;;4.20;99.90;;;;;;5058474;28;20040;-72
2024/01/30 01:39:37;;;;;;;49.45;31.90;;;4.30;99.90;;;;;;5044168;28;20146;-71
2024/01/30 01:42:03;;;;;;;52.92;33.03;;;4.90;99.90;;;;;;5065310;28;20071;-71
2024/01/30 01:44:29;;;;;;;50.15;31.92;;;4.20;99.90;;;;;;5058518;28;20443;-71
2024/01/30 01:46:56;;;;;;;43.45;29.55;;;4.30;99.90;;;;;;5029862;28;20131;-71
2024/01/30 01:49:26;;;;;;;45.05;30.88;;;4.20;99.90;;;;;;5057125;28;20060;-71
2024/01/30 01:51:56;;;;;;;59.47;34.45;;;4.20;99.90;;;;;;5030549;28;20051;-71
2024/01/30 01:54:23;;;;;;;45.35;30.50;;;4.20;99.90;;;;;;5057930;28;20411;-71
2024/01/30 01:56:50;;;;;;;56.35;33.40;;;3.70;99.90;;;;;;5058399;28;20102;-71
2024/01/30 01:59:18;;;;;;;47.30;29.58;;;4.20;99.90;;;;;;5042057;28;20517;-71
2024/01/30 02:01:45;;;;;;;51.95;32.63;;;7.10;99.90;;;;;;5057934;28;20103;-71
2024/01/30 02:04:11;;;;;;;50.08;32.47;;;4.20;99.90;;;;;;5058165;28;20048;-71
2024/01/30 02:06:38;;;;;;;49.15;31.60;;;4.20;99.90;;;;;;5058107;28;20044;-71
2024/01/30 02:09:04;;;;;;;47.53;30.90;;;4.20;99.90;;;;;;5040206;28;20131;-71
2024/01/30 02:11:31;;;;;;;51.63;32.65;;;4.20;99.90;;;;;;5057203;28;20345;-73
2024/01/30 02:13:57;;;;;;;54.97;33.85;;;4.20;99.90;;;;;;5057971;28;20049;-72
2024/01/30 02:16:23;;;;;;;46.78;30.35;;;4.20;99.90;;;;;;5057653;28;20347;-71
2024/01/30 02:18:49;;;;;;;62.13;33.90;;;4.20;99.90;;;;;;5026820;28;20426;-71
2024/01/30 02:21:16;;;;;;;49.45;31.15;;;4.20;99.90;;;;;;5039725;28;20040;-71
2024/01/30 02:23:44;;;;;;;53.15;33.15;;;4.20;99.90;;;;;;5040319;28;20044;-71
2024/01/30 02:26:11;;;;;;;55.67;32.58;;;4.30;99.90;;;;;;5034970;28;20131;-71
2024/01/30 02:28:37;;;;;;;61.88;36.45;;;4.30;99.90;;;;;;5057357;28;20052;-72
2024/01/30 02:31:04;;;;;;;47.78;32.33;;;4.30;99.90;;;;;;5040300;28;20538;-71
2024/01/30 02:33:30;;;;;;;53.03;31.45;;;4.40;99.90;;;;;;5040862;28;20568;-71
2024/01/30 02:35:56;;;;;;;53.30;31.60;;;4.50;99.90;;;;;;5050918;28;20040;-72
2024/01/30 02:38:23;;;;;;;60.45;35.00;;;4.50;99.90;;;;;;5037044;28;20069;-71
2024/01/30 02:40:49;;;;;;;51.28;33.67;;;4.50;99.90;;;;;;5056643;28;20532;-71
2024/01/30 02:43:15;;;;;;;42.28;28.35;;;4.60;99.90;;;;;;5057593;28;20046;-71
2024/01/30 02:45:41;;;;;;;46.70;30.25;;;4.60;99.90;;;;;;5040444;28;20076;-71
2024/01/30 02:48:07;;;;;;;41.95;28.60;;;4.60;99.90;;;;;;5051232;28;20128;-71
2024/01/30 02:50:33;;;;;;;47.15;30.58;;;4.60;99.90;;;;;;5040714;28;20140;-71
2024/01/30 02:52:59;;;;;;;45.85;29.10;;;4.50;99.90;;;;;;5057464;28;20821;-71
2024/01/30 02:55:24;;;;;;;48.47;29.88;;;4.50;99.90;;;;;;5041092;28;20057;-71
2024/01/30 02:57:50;;;;;;;40.17;29.02;;;4.50;99.90;;;;;;5057511;28;20047;-71
2024/01/30 03:00:16;;;;;;;48.00;29.88;;;4.40;99.90;;;;;;5037009;28;20076;-71
2024/01/30 03:02:42;;;;;;;45.58;29.35;;;4.50;99.90;;;;;;5037713;28;20467;-71
2024/01/30 03:05:08;;;;;;;45.55;27.95;;;4.40;99.90;;;;;;5039368;28;20528;-72
2024/01/30 03:07:34;;;;;;;50.75;31.27;;;4.40;99.90;;;;;;5045478;28;20071;-70
2024/01/30 03:10:00;;;;;;;45.97;29.25;;;4.40;99.90;;;;;;5056880;28;20516;-70
2024/01/30 03:12:26;;;;;;;46.08;29.00;;;4.30;99.90;;;;;;5040741;28;20140;-70
2024/01/30 03:14:52;;;;;;;40.38;27.83;;;4.30;99.90;;;;;;5056734;28;20417;-71
2024/01/30 03:17:18;;;;;;;42.85;27.77;;;4.30;99.90;;;;;;5026553;28;20122;-70
2024/01/30 03:19:44;;;;;;;51.03;30.20;;;4.30;99.90;;;;;;5056427;28;20040;-70
2024/01/30 03:22:09;;;;;;;51.67;32.65;;;4.40;99.90;;;;;;5056996;28;20574;-70
2024/01/30 03:24:35;;;;;;;42.50;28.88;;;4.70;99.90;;;;;;5040492;28;20460;-71
2024/01/30 03:27:01;;;;;;;50.08;30.80;;;4.40;99.90;;;;;;5056797;28;20387;-71
2024/01/30 03:29:27;;;;;;;44.72;29.33;;;4.40;99.90;;;;;;5051752;28;20862;-71
2024/01/30 03:31:52;;;;;;;45.65;29.08;;;4.40;99.90;;;;;;5055751;28;20256;-70
2024/01/30 03:34:18;;;;;;;43.78;28.17;;;4.50;99.90;;;;;;5056486;28;20509;-70
2024/01/30 03:36:44;;;;;;;53.97;31.55;;;4.60;99.90;;;;;;5058309;28;20454;-70
2024/01/30 03:39:10;;;;;;;43.72;28.50;;;4.60;99.90;;;;;;5056571;28;20040;-71
2024/01/30 03:41:36;;;;;;;47.20;30.23;;;4.60;99.90;;;;;;5044744;28;20616;-71
2024/01/30 03:44:02;;;;;;;42.17;27.13;;;6.80;99.90;;;;;;5061224;28;20044;-71
2024/01/30 03:46:27;;;;;;;41.85;28.73;;;4.60;99.90;;;;;;5059868;28;20488;-71
2024/01/30 03:48:54;;;;;;;35.42;25.17;;;4.60;99.90;;;;;;5043841;28;20044;-71
2024/01/30 03:51:19;;;;;;;41.97;28.27;;;6.10;99.90;;;;;;5061052;28;20036;-71
2024/01/30 03:53:48;;;;;;;42.72;28.20;;;4.70;99.90;;;;;;5044196;28;20044;-71
2024/01/30 03:56:14;;;;;;;42.08;27.95;;;4.70;99.90;;;;;;5060403;28;20764;-71
2024/01/30 03:58:40;;;;;;;47.33;28.55;;;4.80;99.90;;;;;;5039095;28;20127;-71
2024/01/30 04:01:06;;;;;;;39.85;26.83;;;4.80;99.90;;;;;;5044299;28;20491;-71
2024/01/30 04:03:32;;;;;;;36.15;24.90;;;4.80;99.90;;;;;;5038052;28;20592;-70
2024/01/30 04:05:57;;;;;;;36.10;25.92;;;4.90;99.90;;;;;;5054434;28;20438;-70
2024/01/30 04:08:23;;;;;;;38.33;23.98;;;4.90;99.90;;;;;;5043244;28;20055;-70
2024/01/30 04:10:49;;;;;;;38.03;26.20;;;5.00;99.90;;;;;;5059020;28;20383;-71
2024/01/30 04:13:15;;;;;;;39.92;25.73;;;5.10;99.90;;;;;;5059136;28;20045;-71
2024/01/30 04:15:40;;;;;;;36.20;24.48;;;5.10;99.90;;;;;;5058143;28;20036;-71
2024/01/30 04:18:06;;;;;;;40.17;26.92;;;5.20;99.90;;;;;;5042005;28;20080;-71
2024/01/30 04:20:32;;;;;;;34.97;24.67;;;5.20;99.90;;;;;;5036791;28;20037;-71
2024/01/30 04:22:58;;;;;;;32.92;24.85;;;5.20;99.90;;;;;;5058734;28;20048;-71
2024/01/30 04:25:23;;;;;;;30.50;22.20;;;6.00;99.90;;;;;;5058493;28;20084;-71
2024/01/30 04:27:49;;;;;;;33.03;23.27;;;5.30;99.90;;;;;;5057550;28;20588;-71
2024/01/30 04:30:15;;;;;;;36.17;22.65;;;5.30;99.90;;;;;;5060282;28;20052;-71
2024/01/30 04:32:41;;;;;;;34.17;22.50;;;5.30;99.90;;;;;;5036137;28;20661;-70
2024/01/30 04:35:07;;;;;;;30.45;21.98;;;5.40;99.90;;;;;;5059746;28;20048;-70
2024/01/30 04:37:32;;;;;;;30.60;22.45;;;5.40;99.90;;;;;;5048767;28;20504;-71
2024/01/30 04:39:58;;;;;;;31.45;23.08;;;5.40;99.90;;;;;;5049438;28;20063;-71
2024/01/30 04:42:24;;;;;;;31.33;21.63;;;5.50;99.90;;;;;;5042234;28;20121;-71
2024/01/30 04:44:50;;;;;;;33.63;22.50;;;5.50;99.90;;;;;;5036004;28;20451;-71
2024/01/30 04:47:16;;;;;;;31.50;21.65;;;5.60;99.90;;;;;;5053679;28;20060;-71
2024/01/30 04:49:42;;;;;;;30.10;19.50;;;5.60;99.90;;;;;;5039259;28;20055;-72
2024/01/30 04:52:08;;;;;;;34.03;21.17;;;5.70;99.90;;;;;;5057517;28;20044;-71
2024/01/30 04:54:35;;;;;;;31.27;21.48;;;5.70;99.90;;;;;;5059485;28;20052;-71
2024/01/30 04:57:02;;;;;;;26.02;20.25;;;5.80;99.90;;;;;;5060008;28;20143;-71
2024/01/30 04:59:27;;;;;;;28.33;19.60;;;5.80;99.90;;;;;;5059363;28;20457;-72
2024/01/30 05:01:53;;;;;;;27.73;19.85;;;5.80;99.90;;;;;;5041826;28;20044;-72
2024/01/30 05:04:19;;;;;;;28.20;20.50;;;5.80;99.90;;;;;;5042834;28;20075;-72
2024/01/30 05:06:45;;;;;;;31.02;19.48;;;5.90;99.90;;;;;;5060004;28;20084;-72
2024/01/30 05:09:12;;;;;;;29.38;20.75;;;5.90;99.90;;;;;;5059869;28;20071;-71
2024/01/30 05:11:39;;;;;;;29.73;19.50;;;5.90;99.90;;;;;;5043256;28;20044;-71
2024/01/30 05:14:05;;;;;;;27.10;19.35;;;5.90;99.90;;;;;;5038297;28;20072;-71
2024/01/30 05:16:31;;;;;;;27.45;19.02;;;6.00;99.90;;;;;;5042782;28;20036;-71
2024/01/30 05:18:58;;;;;;;34.33;20.10;;;5.90;99.90;;;;;;5059193;28;20379;-71
2024/01/30 05:21:24;;;;;;;27.40;18.77;;;3.40;99.90;;;;;;5058965;28;20040;-71
2024/01/30 05:23:49;;;;;;;23.00;18.10;;;6.00;99.90;;;;;;5040768;28;20100;-71
2024/01/30 05:26:15;;;;;;;25.25;17.73;;;6.10;99.90;;;;;;5033900;28;20051;-71
2024/01/30 05:28:41;;;;;;;27.60;18.55;;;6.10;99.90;;;;;;5041112;28;20080;-71
2024/01/30 05:31:07;;;;;;;25.52;19.05;;;6.20;99.90;;;;;;5029881;28;20152;-71
2024/01/30 05:33:33;;;;;;;24.88;18.98;;;6.20;99.90;;;;;;5056295;28;20114;-72
2024/01/30 05:35:59;;;;;;;27.58;18.90;;;6.30;99.90;;;;;;5058106;28;20319;-71
2024/01/30 05:38:25;;;;;;;28.95;17.70;;;4.90;99.90;;;;;;5018264;28;20836;-75
2024/01/30 05:40:51;;;;;;;26.40;17.65;;;6.30;99.90;;;;;;5006070;28;20048;-74
2024/01/30 05:43:17;;;;;;;28.23;19.67;;;6.30;99.90;;;;;;5042412;28;20581;-72
2024/01/30 05:45:46;;;;;;;27.00;18.23;;;6.30;99.90;;;;;;5029870;28;20044;-72
2024/01/30 05:48:11;;;;;;;31.23;18.92;;;6.30;99.90;;;;;;5041847;28;20060;-71
2024/01/30 05:50:37;;;;;;;27.38;18.65;;;6.30;99.90;;;;;;5050815;28;20065;-72
2024/01/30 05:53:03;;;;;;;27.02;19.23;;;6.40;99.90;;;;;;5029708;28;20812;-71
2024/01/30 05:55:29;;;;;;;25.63;17.55;;;6.40;99.90;;;;;;5067804;28;20045;-71
2024/01/30 05:57:55;;;;;;;23.48;16.90;;;6.40;99.90;;;;;;5012249;28;20033;-72
2024/01/30 06:00:21;;;;;;;28.75;20.52;;;6.40;99.90;;;;;;5036812;28;20063;-72
2024/01/30 06:02:46;;;;;;;27.13;18.55;;;6.40;99.90;;;;;;5043892;28;20053;-73
2024/01/30 06:05:12;;;;;;;25.83;18.92;;;6.40;99.90;;;;;;5057508;28;20488;-72
2024/01/30 06:07:38;;;;;;;26.00;18.42;;;6.40;99.90;;;;;;5044923;28;20473;-72
2024/01/30 06:10:04;;;;;;;25.85;16.98;;;6.40;99.90;;;;;;5056481;28;20044;-73
2024/01/30 06:12:30;;;;;;;24.27;18.90;;;6.40;99.90;;;;;;5055461;28;20040;-72
2024/01/30 06:14:56;;;;;;;25.63;18.77;;;6.40;99.90;;;;;;5051837;28;20350;-73
2024/01/30 06:17:23;;;;;;;27.10;18.63;;;6.50;99.90;;;;;;5056578;28;20044;-72
2024/01/30 06:19:49;;;;;;;24.08;17.90;;;6.50;99.90;;;;;;5056789;28;20098;-73
2024/01/30 06:22:15;;;;;;;26.52;17.52;;;6.50;99.90;;;;;;5057462;28;20131;-73
2024/01/30 06:24:41;;;;;;;27.60;18.83;;;6.50;99.90;;;;;;5040947;28;20047;-73
2024/01/30 06:27:07;;;;;;;24.25;18.23;;;6.50;99.90;;;;;;5041535;28;20040;-73
2024/01/30 06:29:33;;;;;;;25.15;17.00;;;6.50;99.90;;;;;;5057858;28;20234;-73
2024/01/30 06:31:59;;;;;;;26.70;18.70;;;6.50;99.90;;;;;;5041756;28;20402;-73
2024/01/30 06:34:26;;;;;;;26.90;17.52;;;6.50;99.90;;;;;;5057677;28;20052;-73
2024/01/30 06:36:52;;;;;;;28.80;18.27;;;6.50;99.90;;;;;;5056788;28;20508;-73
2024/01/30 06:39:18;;;;;;;29.00;19.42;;;6.50;99.90;;;;;;5040420;28;20044;-73
2024/01/30 06:41:46;;;;;;;25.98;18.73;;;6.60;99.90;;;;;;5040785;28;20391;-73
2024/01/30 06:44:12;;;;;;;24.65;18.73;;;6.50;99.90;;;;;;5041744;28;20045;-72
2024/01/30 06:46:38;;;;;;;23.35;17.30;;;6.60;99.90;;;;;;5058177;28;20674;-73
2024/01/30 06:49:04;;;;;;;25.38;17.90;;;6.60;99.90;;;;;;5056071;28;20425;-73
2024/01/30 06:51:30;;;;;;;25.27;17.58;;;6.60;99.90;;;;;;5039935;28;20051;-73
2024/01/30 06:53:56;;;;;;;26.20;18.25;;;6.70;99.90;;;;;;5044395;28;20052;-73
2024/01/30 06:56:22;;;;;;;25.02;17.95;;;6.70;99.90;;;;;;5028806;28;20052;-73
2024/01/30 06:58:51;;;;;;;28.80;19.20;;;6.70;99.90;;;;;;5041599;28;20125;-73
2024/01/30 07:01:17;;;;;;;27.63;18.98;;;6.90;99.90;;;;;;5057545;28;20118;-73
2024/01/30 07:03:43;;;;;;;21.75;16.65;;;6.70;99.90;;;;;;5057413;28;20583;-73
2024/01/30 07:06:12;;;;;;;26.60;18.38;;;6.70;99.90;;;;;;5057396;28;20048;-73
2024/01/30 07:08:38;;;;;;;29.25;17.95;;;6.70;99.90;;;;;;5056668;28;20048;-72
2024/01/30 07:11:07;;;;;;;24.02;16.95;;;6.70;99.90;;;;;;5059519;28;20720;-72
2024/01/30 07:13:34;;;;;;;23.77;17.98;;;7.30;99.90;;;;;;5038997;28;20087;-73
2024/01/30 07:16:00;;;;;;;22.90;17.27;;;6.70;99.90;;;;;;5057881;28;20036;-72
2024/01/30 07:18:26;;;;;;;28.20;18.13;;;6.70;99.90;;;;;;5042681;28;20512;-73
2024/01/30 07:20:52;;;;;;;24.10;16.95;;;6.70;99.90;;;;;;5044277;28;20129;-73
2024/01/30 07:23:17;;;;;;;24.27;17.98;;;6.70;99.90;;;;;;5060368;28;20929;-73
2024/01/30 07:25:44;;;;;;;23.42;17.83;;;6.80;99.90;;;;;;5044290;28;20560;-73
2024/01/30 07:28:12;;;;;;;25.58;17.40;;;6.80;99.90;;;;;;5060363;28;20390;-73
2024/01/30 07:30:38;;;;;;;26.88;16.95;;;6.80;99.90;;;;;;5060083;28;20588;-73
2024/01/30 07:33:04;;;;;;;24.83;16.58;;;6.90;99.90;;;;;;5048074;28;20056;-73
2024/01/30 07:35:30;;;;;;;20.73;15.57;;;6.80;99.90;;;;;;5060075;28;20051;-73
2024/01/30 07:37:57;;;;;;;24.20;17.27;;;6.80;99.90;;;;;;5060416;28;20052;-73
2024/01/30 07:40:24;;;;;;;23.38;16.20;;;6.90;99.90;;;;;;5049719;28;20106;-73
2024/01/30 07:42:49;;;;;;;25.85;17.23;;;6.90;99.90;;;;;;5061074;28;20048;-73
2024/01/30 07:45:16;;;;;;;24.35;17.73;;;6.90;99.90;;;;;;5061087;28;20145;-72
2024/01/30 07:47:42;;;;;;;21.17;16.52;;;6.90;99.90;;;;;;5036250;28;20047;-73
2024/01/30 07:50:09;;;;;;;21.02;16.90;;;6.90;99.90;;;;;;5061096;28;20056;-72
2024/01/30 07:52:35;;;;;;;25.65;17.85;;;6.90;99.90;;;;;;5060803;28;20044;-73
2024/01/30 07:55:00;;;;;;;26.65;16.55;;;6.90;99.90;;;;;;5060634;28;20060;-73
2024/01/30 07:57:26;;;;;;;24.42;17.45;;;6.90;99.90;;;;;;5060590;28;20060;-72
2024/01/30 07:59:52;;;;;;;24.08;17.35;;;6.90;99.90;;;;;;5059918;28;20365;-73
2024/01/30 08:02:18;;;;;;;20.60;16.15;;;7.00;99.90;;;;;;5060238;28;20048;-72
2024/01/30 08:04:48;;;;;;;22.05;16.35;;;7.00;99.90;;;;;;5043761;28;20052;-73
2024/01/30 08:07:14;;;;;;;24.75;17.33;;;7.00;99.90;;;;;;5059321;28;20075;-72
2024/01/30 08:09:40;;;;;;;22.35;16.25;;;7.00;99.90;;;;;;5058149;28;20167;-72
2024/01/30 08:12:08;;;;;;;23.80;17.05;;;7.00;99.90;;;;;;5058599;28;20080;-73
2024/01/30 08:14:34;;;;;;;27.70;17.00;;;7.10;99.90;;;;;;5039050;28;20037;-72
2024/01/30 08:17:00;;;;;;;24.13;17.02;;;7.10;99.90;;;;;;5057280;28;20037;-73
2024/01/30 08:19:26;;;;;;;25.35;16.60;;;7.10;99.90;;;;;;5041098;28;20505;-72
2024/01/30 08:21:51;;;;;;;24.35;16.52;;;7.10;99.90;;;;;;5033357;28;20357;-72
2024/01/30 08:24:17;;;;;;;23.77;16.80;;;7.10;99.90;;;;;;5043805;28;20044;-73
2024/01/30 08:26:43;;;;;;;23.45;15.43;;;7.20;99.90;;;;;;5035418;28;20040;-72
2024/01/30 08:29:09;;;;;;;23.80;16.50;;;7.20;99.90;;;;;;5059367;28;20051;-72
2024/01/30 08:31:34;;;;;;;24.52;16.13;;;7.20;99.90;;;;;;5040410;28;20552;-73
2024/01/30 08:34:00;;;;;;;23.02;16.08;;;7.30;99.90;;;;;;5059457;28;20043;-72
2024/01/30 08:36:26;;;;;;;22.27;15.82;;;7.30;99.90;;;;;;5058146;28;20050;-72
2024/01/30 08:38:51;;;;;;;21.73;16.15;;;7.20;99.90;;;;;;5056209;28;20047;-72
2024/01/30 08:41:17;;;;;;;22.67;15.00;;;7.30;99.90;;;;;;5038223;28;20037;-72
2024/01/30 08:43:44;;;;;;;20.05;15.52;;;7.50;99.90;;;;;;5057112;28;20393;-72
2024/01/30 08:46:10;;;;;;;18.67;14.23;;;7.50;99.90;;;;;;5036049;28;20048;-72
2024/01/30 08:48:36;;;;;;;21.75;15.90;;;7.50;99.90;;;;;;5042753;28;20600;-73
2024/01/30 08:51:02;;;;;;;25.23;15.85;;;7.40;99.90;;;;;;5059616;28;20274;-73
2024/01/30 08:53:28;;;;;;;17.83;14.68;;;7.60;99.90;;;;;;5059538;28;20516;-72
2024/01/30 08:55:54;;;;;;;20.88;14.77;;;7.70;99.90;;;;;;5059410;28;20057;-73
2024/01/30 08:58:20;;;;;;;22.27;14.63;;;7.80;99.90;;;;;;5042761;28;20149;-72
2024/01/30 09:00:45;;;;;;;21.83;15.65;;;7.80;99.90;;;;;;5044992;28;20150;-72
2024/01/30 09:03:11;;;;;;;19.98;14.15;;;7.80;99.90;;;;;;5054406;28;20183;-72
2024/01/30 09:05:37;;;;;;;20.38;15.82;;;7.90;99.90;;;;;;5039725;28;20099;-72
2024/01/30 09:08:03;;;;;;;22.52;14.65;;;8.00;99.90;;;;;;5056362;28;20576;-71
2024/01/30 09:10:28;;;;;;;20.17;14.68;;;8.00;99.90;;;;;;5056617;28;20140;-71
2024/01/30 09:12:57;;;;;;;19.63;15.10;;;8.10;99.90;;;;;;5043254;28;20084;-71
2024/01/30 09:15:22;;;;;;;17.23;12.73;;;8.20;99.90;;;;;;5057647;28;20155;-71
2024/01/30 09:17:48;;;;;;;22.10;13.20;;;8.20;99.90;;;;;;5056594;28;20547;-72
2024/01/30 09:20:14;;;;;;;22.40;14.23;;;8.20;99.90;;;;;;5040729;28;20041;-71
2024/01/30 09:22:40;;;;;;;22.40;14.63;;;8.30;99.90;;;;;;5057495;28;20252;-71
2024/01/30 09:25:06;;;;;;;17.83;13.80;;;8.30;99.90;;;;;;5041934;28;20567;-72
2024/01/30 09:27:31;;;;;;;22.17;14.05;;;8.30;99.90;;;;;;5044138;28;20048;-72
2024/01/30 09:29:57;;;;;;;17.30;13.85;;;8.30;99.90;;;;;;5035391;28;20075;-72
2024/01/30 09:32:23;;;;;;;21.88;13.50;;;8.40;99.90;;;;;;5056229;28;20116;-72
2024/01/30 09:34:49;;;;;;;21.27;13.80;;;8.30;99.90;;;;;;5054849;28;20504;-73
2024/01/30 09:37:16;;;;;;;19.40;13.80;;;8.50;99.90;;;;;;5026750;28;20043;-72
2024/01/30 09:39:42;;;;;;;20.33;14.50;;;8.50;99.90;;;;;;5053467;28;20049;-72
2024/01/30 09:42:36;;;;;;;20.20;13.73;;;8.60;99.90;;;;;;5059294;28;20036;-72
2024/01/30 09:45:04;;;;;;;20.00;13.77;;;8.60;99.90;;;;;;5054838;28;20390;-72
2024/01/30 09:47:43;;;;;;;17.23;12.93;;;8.60;99.90;;;;;;5033244;28;20045;-72
2024/01/30 09:50:13;;;;;;;19.20;13.90;;;8.60;99.90;;;;;;5055568;28;20127;-72
2024/01/30 09:52:40;;;;;;;19.58;13.57;;;8.70;99.90;;;;;;5033452;28;20087;-72
2024/01/30 09:55:07;;;;;;;23.08;14.20;;;8.70;99.90;;;;;;5035004;28;20061;-72
2024/01/30 09:57:34;;;;;;;20.08;14.52;;;8.70;99.90;;;;;;5054124;28;20106;-72
2024/01/30 09:59:59;;;;;;;19.92;12.93;;;8.70;99.90;;;;;;5057056;28;20122;-72
2024/01/30 10:02:25;;;;;;;20.15;13.48;;;8.80;99.90;;;;;;5038352;28;20044;-72
2024/01/30 10:04:52;;;;;;;16.67;13.98;;;9.70;99.90;;;;;;5056055;28;20447;-71
2024/01/30 10:07:18;;;;;;;17.20;12.23;;;8.90;99.90;;;;;;5058413;28;20040;-73
2024/01/30 10:09:45;;;;;;;18.50;12.82;;;8.90;99.90;;;;;;5051973;28;20453;-71
2024/01/30 10:12:11;;;;;;;17.35;12.77;;;9.00;99.90;;;;;;5030250;28;20048;-72
2024/01/30 10:14:41;;;;;;;17.00;13.30;;;9.20;99.90;;;;;;5041694;28;20074;-72
2024/01/30 10:17:11;;;;;;;16.42;12.43;;;9.40;99.90;;;;;;5032976;28;20051;-72
2024/01/30 10:19:41;;;;;;;18.35;12.70;;;9.60;99.90;;;;;;5041132;28;20430;-71
2024/01/30 10:22:08;;;;;;;17.98;11.70;;;9.80;99.90;;;;;;5035503;28;20044;-72
2024/01/30 10:24:34;;;;;;;15.85;10.98;;;9.80;99.90;;;;;;5041287;28;20049;-73
2024/01/30 10:27:00;;;;;;;17.00;11.35;;;9.80;99.90;;;;;;5057601;28;20527;-73
2024/01/30 10:29:27;;;;;;;23.05;11.98;;;9.80;99.90;;;;;;5057957;28;20684;-73
2024/01/30 10:32:03;;;;;;;18.02;11.32;;;9.90;99.90;;;;;;5041255;28;20376;-72
2024/01/30 10:34:30;;;;;;;15.55;11.55;;;9.90;99.90;;;;;;5057753;28;20060;-72
2024/01/30 10:37:00;;;;;;;16.73;11.88;;;10.00;99.90;;;;;;5057546;28;20052;-72
2024/01/30 10:39:35;;;;;;;13.35;10.57;;;10.00;99.90;;;;;;5058039;28;20045;-72
2024/01/30 10:42:05;;;;;;;16.95;12.00;;;10.10;99.90;;;;;;5030963;28;20558;-72
2024/01/30 10:44:47;;;;;;;15.52;10.68;;;10.20;99.90;;;;;;5057274;28;20056;-72
2024/01/30 10:47:16;;;;;;;15.95;10.88;;;10.20;99.90;;;;;;5057574;28;20501;-73
2024/01/30 10:49:42;;;;;;;15.65;10.80;;;10.20;99.90;;;;;;5033620;28;20048;-72
2024/01/30 10:52:10;;;;;;;17.13;12.07;;;10.20;99.90;;;;;;5058081;28;20048;-72
2024/01/30 10:54:37;;;;;;;19.20;11.23;;;10.20;99.90;;;;;;5040360;28;20087;-72
2024/01/30 10:57:05;;;;;;;18.05;12.27;;;10.30;99.90;;;;;;5056531;28;20053;-72
2024/01/30 10:59:32;;;;;;;16.48;11.20;;;10.30;99.90;;;;;;5039849;28;20101;-71
2024/01/30 11:01:59;;;;;;;20.67;11.90;;;10.30;99.90;;;;;;5057366;28;20692;-71
2024/01/30 11:04:25;;;;;;;20.88;11.73;;;9.70;99.90;;;;;;5058234;28;20047;-71
2024/01/30 11:06:51;;;;;;;20.00;12.05;;;10.20;99.90;;;;;;5041156;28;20041;-71
2024/01/30 11:09:19;;;;;;;20.05;11.38;;;10.20;99.90;;;;;;5057250;28;20048;-71
2024/01/30 11:11:49;;;;;;;19.65;11.82;;;10.30;99.90;;;;;;5056289;28;20049;-72
2024/01/30 11:14:15;;;;;;;18.33;11.57;;;10.20;99.90;;;;;;5031912;28;20114;-72
2024/01/30 11:16:41;;;;;;;20.38;11.32;;;10.20;99.90;;;;;;5032044;28;20049;-71
2024/01/30 11:19:12;;;;;;;16.52;11.93;;;10.20;99.90;;;;;;5030993;28;20106;-72
2024/01/30 11:21:43;;;;;;;19.13;11.85;;;10.20;99.90;;;;;;5042129;28;20043;-72
2024/01/30 11:24:09;;;;;;;16.52;12.00;;;10.20;99.90;;;;;;5038842;28;20040;-72
2024/01/30 11:26:35;;;;;;;18.90;12.02;;;10.30;99.90;;;;;;5030880;28;20047;-73
2024/01/30 11:29:07;;;;;;;21.55;11.90;;;10.30;99.90;;;;;;5033381;28;20135;-72
2024/01/30 11:31:33;;;;;;;;;;;10.30;99.90;;;;;;5034056;28;20516;-72
2024/01/30 11:33:59;;;;;;;19.75;11.88;;;10.30;99.90;;;;;;5046513;28;20420;-72
2024/01/30 11:36:29;;;;;;;18.27;12.02;;;8.70;99.90;;;;;;5049399;28;20564;-72
2024/01/30 11:38:55;;;;;;;24.10;11.77;;;10.30;99.90;;;;;;5044111;28;20032;-72
2024/01/30 11:41:22;;;;;;;18.63;11.38;;;10.30;99.90;;;;;;5049800;28;20505;-72
2024/01/30 11:43:54;;;;;;;18.65;12.02;;;10.30;99.90;;;;;;5046508;28;20296;-71
2024/01/30 11:46:20;;;;;;;19.02;12.65;;;10.30;99.90;;;;;;5048921;28;20102;-71
2024/01/30 11:48:46;;;;;;;14.70;11.90;;;10.30;99.90;;;;;;5046404;28;20033;-72
2024/01/30 11:51:13;;;;;;;19.67;11.85;;;10.30;99.90;;;;;;5048741;28;20663;-71
2024/01/30 11:53:39;;;;;;;21.40;12.85;;;10.20;99.90;;;;;;5061343;28;20063;-71
2024/01/30 11:56:08;;;;;;;27.58;13.32;;;10.40;99.90;;;;;;5031715;28;20063;-72
2024/01/30 11:58:34;;;;;;;23.45;11.68;;;10.20;99.90;;;;;;5035860;28;20080;-72
2024/01/30 12:01:00;;;;;;;20.65;13.07;;;10.10;99.90;;;;;;5052933;28;20558;-72
2024/01/30 12:03:26;;;;;;;18.45;12.98;;;10.20;99.90;;;;;;5048782;28;20627;-72
2024/01/30 12:05:59;;;;;;;18.67;13.27;;;10.20;99.90;;;;;;5055002;28;20052;-72
2024/01/30 12:08:25;;;;;;;20.83;14.15;;;12.80;99.90;;;;;;5053716;28;20205;-72
2024/01/30 12:10:58;;;;;;;19.15;13.60;;;10.40;99.90;;;;;;5053329;28;20109;-72
2024/01/30 12:13:25;;;;;;;19.27;14.25;;;10.30;99.90;;;;;;5049435;28;20051;-72
2024/01/30 12:15:51;;;;;;;20.63;14.20;;;10.40;99.90;;;;;;5028875;28;20840;-72
2024/01/30 12:18:20;;;;;;;17.27;13.77;;;10.50;99.90;;;;;;5033627;28;20040;-72
2024/01/30 12:20:58;;;;;;;23.10;14.10;;;10.50;99.90;;;;;;5053532;28;20028;-71
2024/01/30 12:23:25;;;;;;;21.30;14.15;;;10.60;99.90;;;;;;5043943;28;20101;-73
2024/01/30 12:25:52;;;;;;;21.00;14.02;;;10.60;99.90;;;;;;5034954;28;20507;-73
2024/01/30 12:28:18;;;;;;;22.60;14.07;;;10.60;99.90;;;;;;5043167;28;20546;-73
2024/01/30 12:30:43;;;;;;;19.83;13.93;;;10.60;99.90;;;;;;5034671;28;20144;-73
2024/01/30 12:33:09;;;;;;;22.02;13.98;;;10.60;99.90;;;;;;5053512;28;20039;-73